Time;durP1;ratioP1;P1;durP2;ratioP2;P2;SDS_P1;SDS_P2;PMS_P1;PMS_P2;Temp;Humidity;BMP_temperature;BMP_pressure;BME280_temperature;BME280_humidity;BME280_pressure;Samples;Min_cycle;Max_cycle;Signal;HPM_P1;HPM_P2
2022/09/24 00:01:13;;;;;;;12.73;6.72;;;;;;;;;;4968316;28;20474;-69
2022/09/24 00:03:40;;;;;;;14.18;6.88;;;;;;;;;;4968521;28;20044;-69
2022/09/24 00:06:07;;;;;;;11.95;6.60;;;;;;;;;;4950321;28;20506;-69
2022/09/24 00:08:32;;;;;;;19.00;6.93;;;;;;;;;;4968213;28;20372;-69
2022/09/24 00:11:01;;;;;;;16.90;6.65;;;;;;;;;;4968111;28;20110;-69
2022/09/24 00:13:26;;;;;;;14.30;7.35;;;;;;;;;;4968278;28;20516;-69
2022/09/24 00:15:52;;;;;;;12.23;6.35;;;;;;;;;;4950413;28;20026;-69
2022/09/24 00:18:18;;;;;;;13.15;7.05;;;;;;;;;;4967804;28;20470;-69
2022/09/24 00:20:43;;;;;;;13.15;6.07;;;;;;;;;;4950255;28;20096;-69
2022/09/24 00:23:10;;;;;;;14.15;6.38;;;;;;;;;;4967740;28;20053;-69
2022/09/24 00:28:24;;;;;;;12.05;6.45;;;;;;;;;;4952899;28;20463;-69
2022/09/24 00:30:51;;;;;;;14.35;6.88;;;;;;;;;;4968685;28;20433;-69
2022/09/24 00:33:16;;;;;;;11.73;5.63;;;;;;;;;;4950500;28;20356;-69
2022/09/24 00:35:42;;;;;;;13.23;5.82;;;;;;;;;;4950093;28;20380;-69
2022/09/24 00:38:07;;;;;;;10.65;5.80;;;;;;;;;;4967766;28;20447;-69
2022/09/24 00:40:35;;;;;;;11.32;6.20;;;;;;;;;;4967825;28;20448;-69
2022/09/24 00:43:00;;;;;;;13.07;6.63;;;;;;;;;;4967834;28;20523;-70
2022/09/24 00:45:28;;;;;;;12.63;5.75;;;;;;;;;;4950277;28;20428;-69
2022/09/24 00:47:54;;;;;;;12.32;6.05;;;;;;;;;;4970617;28;20522;-69
2022/09/24 00:50:30;;;;;;;12.70;5.60;;;;;;;;;;4954285;28;20041;-69
2022/09/24 00:53:00;;;;;;;10.48;5.75;;;;;;;;;;4954823;28;20517;-69
2022/09/24 00:55:26;;;;;;;11.65;5.82;;;;;;;;;;4970876;28;20476;-69
2022/09/24 00:57:55;;;;;;;9.75;5.70;;;;;;;;;;4971091;28;20428;-69
2022/09/24 01:00:21;;;;;;;10.77;5.53;;;;;;;;;;4953891;28;20029;-70
2022/09/24 01:02:49;;;;;;;9.02;4.95;;;;;;;;;;4978762;28;20060;-69
2022/09/24 01:05:14;;;;;;;16.08;5.95;;;;;;;;;;4953807;28;20432;-69
2022/09/24 01:07:39;;;;;;;10.25;5.57;;;;;;;;;;4971177;28;20537;-69
2022/09/24 01:10:05;;;;;;;10.38;4.57;;;;;;;;;;4972174;28;20325;-69
2022/09/24 01:12:52;;;;;;;10.23;5.13;;;;;;;;;;4972706;28;20421;-69
2022/09/24 01:15:27;;;;;;;9.52;5.05;;;;;;;;;;4953726;28;20424;-69
2022/09/24 01:18:10;;;;;;;19.27;7.15;;;;;;;;;;4953069;28;20087;-69
2022/09/24 01:20:45;;;;;;;13.93;6.68;;;;;;;;;;4952969;28;20048;-70
2022/09/24 01:23:52;;;;;;;10.73;5.15;;;;;;;;;;4970854;28;20372;-69
2022/09/24 01:26:47;;;;;;;12.90;6.15;;;;;;;;;;4972299;28;20452;-69
2022/09/24 01:29:31;;;;;;;12.43;5.30;;;;;;;;;;4943635;28;20463;-69
2022/09/24 01:32:28;;;;;;;10.32;5.55;;;;;;;;;;4970668;28;20095;-69
2022/09/24 01:34:59;;;;;;;12.20;5.55;;;;;;;;;;4969996;28;20510;-69
2022/09/24 01:37:27;;;;;;;14.15;5.40;;;;;;;;;;4952755;28;20044;-69
2022/09/24 01:39:54;;;;;;;11.43;5.50;;;;;;;;;;4953013;28;20432;-69
2022/09/24 01:42:20;;;;;;;9.15;4.35;;;;;;;;;;4952656;28;20428;-69
2022/09/24 01:44:46;;;;;;;10.75;4.80;;;;;;;;;;4970542;28;20047;-69
2022/09/24 01:47:19;;;;;;;11.25;5.82;;;;;;;;;;4974219;28;20021;-69
2022/09/24 01:49:45;;;;;;;17.45;5.40;;;;;;;;;;4972226;28;20465;-69
2022/09/24 01:52:15;;;;;;;11.63;6.00;;;;;;;;;;4971999;28;20440;-69
2022/09/24 01:54:41;;;;;;;12.90;4.97;;;;;;;;;;4972173;28;20384;-69
2022/09/24 01:57:28;;;;;;;9.50;4.85;;;;;;;;;;4971962;28;20398;-69
2022/09/24 02:00:03;;;;;;;15.00;6.03;;;;;;;;;;4972075;28;20443;-69
2022/09/24 02:02:34;;;;;;;11.57;5.90;;;;;;;;;;4972073;28;20482;-69
2022/09/24 02:05:12;;;;;;;9.23;5.50;;;;;;;;;;4989738;28;20428;-69
2022/09/24 02:07:43;;;;;;;9.18;4.97;;;;;;;;;;4989839;28;20032;-69
2022/09/24 02:10:14;;;;;;;13.82;5.72;;;;;;;;;;4989475;28;20546;-69
2022/09/24 02:12:42;;;;;;;7.57;4.70;;;;;;;;;;4972071;28;20352;-69
2022/09/24 02:15:11;;;;;;;12.80;5.43;;;;;;;;;;4989541;28;20051;-69
2022/09/24 02:17:40;;;;;;;12.48;6.05;;;;;;;;;;4971920;28;20340;-69
2022/09/24 02:20:12;;;;;;;9.27;5.13;;;;;;;;;;4989443;28;20459;-69
2022/09/24 02:22:38;;;;;;;9.23;4.97;;;;;;;;;;4989395;28;20305;-69
2022/09/24 02:25:05;;;;;;;11.65;5.30;;;;;;;;;;4971506;28;20025;-69
2022/09/24 02:27:30;;;;;;;8.82;5.25;;;;;;;;;;4971234;28;20404;-69
2022/09/24 02:29:56;;;;;;;10.82;5.72;;;;;;;;;;4989379;28;20125;-69
2022/09/24 02:32:22;;;;;;;10.02;5.80;;;;;;;;;;4971148;28;20349;-69
2022/09/24 02:34:51;;;;;;;8.98;4.68;;;;;;;;;;4972148;28;20362;-69
2022/09/24 02:37:17;;;;;;;;;;;;;;;;;;4971577;28;20535;-69
2022/09/24 02:39:42;;;;;;;8.57;4.75;;;;;;;;;;4970969;28;20355;-69
2022/09/24 02:42:09;;;;;;;10.98;5.38;;;;;;;;;;4971243;28;20454;-69
2022/09/24 02:44:35;;;;;;;12.23;4.95;;;;;;;;;;4971018;28;20348;-69
2022/09/24 02:47:01;;;;;;;9.57;4.93;;;;;;;;;;4988761;28;20190;-69
2022/09/24 02:49:27;;;;;;;8.80;4.50;;;;;;;;;;4970909;28;20479;-69
2022/09/24 02:51:52;;;;;;;8.60;5.05;;;;;;;;;;4988597;28;20454;-69
2022/09/24 02:54:17;;;;;;;8.95;5.13;;;;;;;;;;4989163;28;20419;-69
2022/09/24 02:56:43;;;;;;;9.45;5.30;;;;;;;;;;4971041;28;20415;-69
2022/09/24 02:59:08;;;;;;;11.13;5.47;;;;;;;;;;4988750;28;20423;-68
2022/09/24 03:01:34;;;;;;;15.18;6.03;;;;;;;;;;4989580;28;20043;-69
2022/09/24 03:04:00;;;;;;;11.05;5.18;;;;;;;;;;4970664;28;20444;-68
2022/09/24 03:06:25;;;;;;;9.80;4.60;;;;;;;;;;4970826;28;20037;-68
2022/09/24 03:08:52;;;;;;;10.70;4.50;;;;;;;;;;4988188;28;20439;-68
2022/09/24 03:11:18;;;;;;;7.50;4.63;;;;;;;;;;4988185;28;20455;-68
2022/09/24 03:13:44;;;;;;;10.55;5.07;;;;;;;;;;4989033;28;20424;-68
2022/09/24 03:16:09;;;;;;;7.68;4.20;;;;;;;;;;4970658;28;20543;-69
2022/09/24 03:18:34;;;;;;;8.77;4.93;;;;;;;;;;4988334;28;20439;-69
2022/09/24 03:21:09;;;;;;;8.35;4.65;;;;;;;;;;4988932;28;20332;-68
2022/09/24 03:23:34;;;;;;;10.15;4.72;;;;;;;;;;4988355;28;20464;-68
2022/09/24 03:26:00;;;;;;;7.82;4.72;;;;;;;;;;4970241;28;20311;-68
2022/09/24 03:28:26;;;;;;;12.05;6.15;;;;;;;;;;4989868;28;20428;-68
2022/09/24 03:31:00;;;;;;;7.45;3.90;;;;;;;;;;4987974;28;20399;-69
2022/09/24 03:33:33;;;;;;;8.75;5.18;;;;;;;;;;4988416;28;20321;-68
2022/09/24 03:36:04;;;;;;;9.52;5.20;;;;;;;;;;4988382;28;20372;-69
2022/09/24 03:38:31;;;;;;;8.25;4.68;;;;;;;;;;4987908;28;20032;-69
2022/09/24 03:40:57;;;;;;;8.73;5.13;;;;;;;;;;4987943;28;20044;-68
2022/09/24 03:43:23;;;;;;;8.18;4.50;;;;;;;;;;4987892;28;20454;-69
2022/09/24 03:45:49;;;;;;;7.93;4.53;;;;;;;;;;4969934;28;20495;-69
2022/09/24 03:48:15;;;;;;;11.52;4.40;;;;;;;;;;4969811;28;20463;-68
2022/09/24 03:50:41;;;;;;;9.73;4.25;;;;;;;;;;4969917;28;20601;-68
2022/09/24 03:53:06;;;;;;;7.53;4.32;;;;;;;;;;4988590;28;20512;-69
2022/09/24 03:55:52;;;;;;;9.60;4.88;;;;;;;;;;4987487;28;20064;-68
2022/09/24 03:58:18;;;;;;;10.32;4.75;;;;;;;;;;4969571;28;20391;-68
2022/09/24 04:00:43;;;;;;;7.75;4.22;;;;;;;;;;4970085;28;20427;-68
2022/09/24 04:03:09;;;;;;;7.88;4.30;;;;;;;;;;4969819;28;20414;-68
2022/09/24 04:05:35;;;;;;;6.95;4.55;;;;;;;;;;4987681;28;20436;-68
2022/09/24 04:08:01;;;;;;;6.25;3.78;;;;;;;;;;4987937;28;20451;-69
2022/09/24 04:10:27;;;;;;;8.73;4.95;;;;;;;;;;4969608;28;20517;-68
2022/09/24 04:12:52;;;;;;;7.10;4.10;;;;;;;;;;4969619;28;20095;-69
2022/09/24 04:15:18;;;;;;;8.70;4.32;;;;;;;;;;4988994;28;20423;-68
2022/09/24 04:17:54;;;;;;;9.82;4.95;;;;;;;;;;4988011;28;20375;-68
2022/09/24 04:20:21;;;;;;;8.02;4.20;;;;;;;;;;4970104;28;20521;-68
2022/09/24 04:22:50;;;;;;;8.73;4.40;;;;;;;;;;4973666;28;20368;-71
2022/09/24 04:25:16;;;;;;;8.23;4.82;;;;;;;;;;4991626;28;20447;-69
2022/09/24 04:27:45;;;;;;;6.63;3.85;;;;;;;;;;4991305;28;20440;-68
2022/09/24 04:30:13;;;;;;;13.43;4.35;;;;;;;;;;4970293;28;20472;-69
2022/09/24 04:32:40;;;;;;;9.00;4.30;;;;;;;;;;4971195;28;20329;-69
2022/09/24 04:35:06;;;;;;;10.02;4.72;;;;;;;;;;4971020;28;20479;-68
2022/09/24 04:38:28;;;;;;;6.28;3.92;;;;;;;;;;5064577;27;20924;-68
2022/09/24 04:40:53;;;;;;;11.25;5.30;;;;;;;;;;5023795;28;20358;-67
2022/09/24 04:43:19;;;;;;;9.95;4.55;;;;;;;;;;4697903;28;10001022;-68
2022/09/24 04:45:45;;;;;;;9.00;5.10;;;;;;;;;;5026647;28;20468;-68
2022/09/24 04:48:11;;;;;;;10.00;5.18;;;;;;;;;;5046040;28;20445;-67
2022/09/24 04:50:37;;;;;;;12.07;5.45;;;;;;;;;;5026763;28;20347;-69
2022/09/24 04:53:02;;;;;;;13.02;5.13;;;;;;;;;;5044478;28;20458;-68
2022/09/24 04:55:28;;;;;;;8.77;5.05;;;;;;;;;;5044736;28;20365;-67
2022/09/24 04:57:56;;;;;;;12.45;5.85;;;;;;;;;;5045063;28;20457;-67
2022/09/24 05:00:22;;;;;;;8.35;4.78;;;;;;;;;;5026507;28;20053;-66
2022/09/24 05:02:55;;;;;;;16.40;5.40;;;;;;;;;;5046189;28;20446;-67
2022/09/24 05:05:20;;;;;;;26.55;7.32;;;;;;;;;;5025963;28;20530;-67
2022/09/24 05:07:45;;;;;;;44.72;7.75;;;;;;;;;;5044317;28;20493;-68
2022/09/24 05:10:11;;;;;;;51.92;9.23;;;;;;;;;;5044460;28;20429;-67
2022/09/24 05:12:39;;;;;;;34.83;8.15;;;;;;;;;;5046111;28;20414;-67
2022/09/24 05:15:05;;;;;;;33.67;7.70;;;;;;;;;;5026498;28;20113;-66
2022/09/24 05:17:30;;;;;;;30.42;6.95;;;;;;;;;;5045272;28;20040;-67
2022/09/24 05:19:56;;;;;;;38.83;7.78;;;;;;;;;;5046082;28;20533;-67
2022/09/24 05:22:24;;;;;;;22.92;7.28;;;;;;;;;;5044170;28;20350;-66
2022/09/24 05:24:49;;;;;;;18.05;8.00;;;;;;;;;;5044222;28;20457;-67
2022/09/24 05:27:14;;;;;;;27.75;6.85;;;;;;;;;;5044606;28;20458;-67
2022/09/24 05:29:42;;;;;;;17.83;6.47;;;;;;;;;;5045717;28;20484;-67
2022/09/24 05:32:14;;;;;;;18.83;6.95;;;;;;;;;;5043766;28;20346;-67
2022/09/24 05:34:41;;;;;;;18.08;6.03;;;;;;;;;;5042228;28;20450;-67
2022/09/24 05:37:06;;;;;;;25.55;7.65;;;;;;;;;;5042287;28;20044;-67
2022/09/24 05:39:32;;;;;;;23.42;7.57;;;;;;;;;;5043470;28;20085;-67
2022/09/24 05:41:57;;;;;;;16.65;6.85;;;;;;;;;;5043455;28;20102;-67
2022/09/24 05:44:23;;;;;;;18.27;7.70;;;;;;;;;;5024985;28;20474;-67
2022/09/24 05:46:49;;;;;;;11.98;5.85;;;;;;;;;;5043568;28;20292;-67
2022/09/24 05:49:15;;;;;;;16.35;6.95;;;;;;;;;;5014368;28;20024;-68
2022/09/24 05:51:40;;;;;;;15.75;7.05;;;;;;;;;;5028640;28;20435;-68
2022/09/24 05:54:06;;;;;;;14.05;6.88;;;;;;;;;;5029945;28;20448;-67
2022/09/24 05:56:31;;;;;;;15.52;6.05;;;;;;;;;;5029861;28;20370;-67
2022/09/24 05:58:56;;;;;;;20.23;6.68;;;;;;;;;;5011721;28;20455;-67
2022/09/24 06:01:23;;;;;;;17.10;6.18;;;;;;;;;;5029986;28;20439;-67
2022/09/24 06:03:49;;;;;;;12.52;6.53;;;;;;;;;;5030072;28;20462;-68
2022/09/24 06:06:14;;;;;;;21.52;6.70;;;;;;;;;;5029600;28;20522;-67
2022/09/24 06:08:39;;;;;;;16.83;7.53;;;;;;;;;;5011729;28;20535;-68
2022/09/24 06:11:07;;;;;;;11.30;5.63;;;;;;;;;;5029913;28;20466;-67
2022/09/24 06:13:33;;;;;;;14.95;6.43;;;;;;;;;;5011573;28;20311;-67
2022/09/24 06:16:03;;;;;;;15.63;5.88;;;;;;;;;;5011905;28;20347;-67
2022/09/24 06:18:30;;;;;;;10.10;6.20;;;;;;;;;;5012133;28;20362;-67
2022/09/24 06:21:00;;;;;;;15.40;5.88;;;;;;;;;;5011652;28;20466;-67
2022/09/24 06:23:25;;;;;;;15.85;6.20;;;;;;;;;;5011479;28;20357;-67
2022/09/24 06:25:51;;;;;;;14.13;6.15;;;;;;;;;;5029651;28;20358;-68
2022/09/24 06:28:16;;;;;;;17.52;6.70;;;;;;;;;;5029409;28;20430;-67
2022/09/24 06:30:41;;;;;;;15.20;6.88;;;;;;;;;;5029564;28;20422;-68
2022/09/24 06:33:11;;;;;;;14.15;5.88;;;;;;;;;;5029316;28;20453;-67
2022/09/24 06:35:38;;;;;;;10.13;5.70;;;;;;;;;;5011823;28;20020;-67
2022/09/24 06:38:05;;;;;;;14.25;6.80;;;;;;;;;;5011100;28;20336;-67
2022/09/24 06:40:30;;;;;;;13.82;6.90;;;;;;;;;;5029646;28;20347;-68
2022/09/24 06:42:56;;;;;;;13.85;7.13;;;;;;;;;;5029396;28;20051;-68
2022/09/24 06:45:22;;;;;;;12.05;5.82;;;;;;;;;;5011243;28;20499;-68
2022/09/24 06:47:54;;;;;;;15.40;6.30;;;;;;;;;;5029519;28;20358;-67
2022/09/24 06:50:20;;;;;;;18.45;9.10;;;;;;;;;;5031479;28;20373;-68
2022/09/24 06:52:45;;;;;;;18.92;8.90;;;;;;;;;;5030895;28;20363;-68
2022/09/24 06:55:10;;;;;;;20.05;8.45;;;;;;;;;;5028898;28;20519;-67
2022/09/24 06:57:36;;;;;;;18.35;9.13;;;;;;;;;;5028995;28;20443;-67
2022/09/24 07:00:01;;;;;;;16.02;6.95;;;;;;;;;;5028448;28;20423;-67
2022/09/24 07:02:27;;;;;;;10.65;6.25;;;;;;;;;;5028698;28;20458;-69
2022/09/24 07:04:52;;;;;;;9.27;5.57;;;;;;;;;;5029094;28;20429;-67
2022/09/24 07:07:32;;;;;;;10.82;5.22;;;;;;;;;;5029471;28;20028;-68
2022/09/24 07:10:05;;;;;;;11.13;5.75;;;;;;;;;;5028610;28;20442;-69
2022/09/24 07:12:31;;;;;;;10.43;5.88;;;;;;;;;;5010507;28;20555;-68
2022/09/24 07:14:57;;;;;;;12.18;5.65;;;;;;;;;;5028527;28;20500;-68
2022/09/24 07:17:24;;;;;;;13.65;6.10;;;;;;;;;;5010246;28;20386;-67
2022/09/24 07:19:50;;;;;;;13.65;5.78;;;;;;;;;;5028471;28;20051;-67
2022/09/24 07:22:15;;;;;;;11.48;5.07;;;;;;;;;;5010499;28;20439;-67
2022/09/24 07:24:41;;;;;;;11.82;5.55;;;;;;;;;;5028863;28;20020;-67
2022/09/24 07:27:07;;;;;;;9.43;5.05;;;;;;;;;;5029483;28;20331;-67
2022/09/24 07:29:33;;;;;;;9.68;5.55;;;;;;;;;;5028305;28;20380;-67
2022/09/24 07:31:58;;;;;;;10.85;5.95;;;;;;;;;;5028380;28;20457;-67
2022/09/24 07:34:23;;;;;;;13.60;4.10;;;;;;;;;;5028623;28;20370;-67
2022/09/24 07:36:49;;;;;;;9.00;4.40;;;;;;;;;;5009562;28;20048;-68
2022/09/24 07:39:15;;;;;;;13.40;4.97;;;;;;;;;;5010496;28;20505;-67
2022/09/24 07:41:41;;;;;;;9.13;4.53;;;;;;;;;;5010219;28;20431;-67
2022/09/24 07:44:07;;;;;;;8.55;4.05;;;;;;;;;;5027960;28;20347;-68
2022/09/24 07:46:32;;;;;;;6.53;4.05;;;;;;;;;;5009664;28;20449;-68
2022/09/24 07:48:58;;;;;;;6.07;3.92;;;;;;;;;;5028052;28;20445;-67
2022/09/24 07:51:27;;;;;;;11.07;4.18;;;;;;;;;;5010118;28;20342;-67
2022/09/24 07:53:53;;;;;;;7.25;4.07;;;;;;;;;;5027811;28;20573;-67
2022/09/24 07:56:19;;;;;;;10.02;4.70;;;;;;;;;;5027671;28;20439;-67
2022/09/24 07:58:48;;;;;;;9.48;4.05;;;;;;;;;;5009756;28;20388;-67
2022/09/24 08:01:16;;;;;;;13.27;4.18;;;;;;;;;;5009558;28;20370;-68
2022/09/24 08:03:41;;;;;;;8.20;4.15;;;;;;;;;;5009623;28;20437;-68
2022/09/24 08:06:07;;;;;;;6.10;3.55;;;;;;;;;;5027693;28;20503;-68
2022/09/24 08:08:32;;;;;;;12.13;4.05;;;;;;;;;;5027481;28;20509;-68
2022/09/24 08:11:02;;;;;;;5.15;3.20;;;;;;;;;;5027585;28;20359;-67
2022/09/24 08:13:28;;;;;;;8.35;3.80;;;;;;;;;;5009645;28;20539;-68
2022/09/24 08:16:01;;;;;;;8.15;3.65;;;;;;;;;;5029802;28;20497;-67
2022/09/24 08:18:28;;;;;;;6.15;3.38;;;;;;;;;;5028691;28;20499;-67
2022/09/24 08:20:53;;;;;;;6.85;3.63;;;;;;;;;;5009327;28;20032;-67
2022/09/24 08:23:19;;;;;;;7.10;3.30;;;;;;;;;;5009173;28;20472;-67
2022/09/24 08:25:45;;;;;;;6.38;3.35;;;;;;;;;;5028044;28;20320;-67
2022/09/24 08:28:11;;;;;;;9.05;3.75;;;;;;;;;;5027416;28;20362;-67
2022/09/24 08:30:38;;;;;;;10.23;3.60;;;;;;;;;;5027492;28;20099;-67
2022/09/24 08:33:06;;;;;;;7.03;4.18;;;;;;;;;;5027178;28;20042;-68
2022/09/24 08:35:32;;;;;;;7.20;3.72;;;;;;;;;;5027740;28;20378;-67
2022/09/24 08:38:00;;;;;;;9.02;4.03;;;;;;;;;;5026785;28;20382;-67
2022/09/24 08:40:28;;;;;;;10.55;4.30;;;;;;;;;;5027232;28;20431;-67
2022/09/24 08:43:09;;;;;;;5.22;3.42;;;;;;;;;;5009668;28;20465;-67
2022/09/24 08:48:30;;;;;;;4.93;2.97;;;;;;;;;;5027776;28;20054;-67
2022/09/24 08:51:01;;;;;;;7.75;3.92;;;;;;;;;;5009245;28;20422;-67
2022/09/24 08:53:41;;;;;;;9.70;3.60;;;;;;;;;;5009452;28;20445;-67
2022/09/24 08:56:07;;;;;;;6.50;3.28;;;;;;;;;;5008898;28;20043;-67
2022/09/24 08:58:52;;;;;;;5.68;3.30;;;;;;;;;;5008935;28;20440;-67
2022/09/24 09:01:29;;;;;;;6.00;3.50;;;;;;;;;;5009740;28;20092;-67
2022/09/24 09:04:10;;;;;;;8.13;3.80;;;;;;;;;;5027163;28;21822;-67
2022/09/24 09:06:50;;;;;;;5.63;3.22;;;;;;;;;;5008918;28;20028;-67
2022/09/24 09:09:36;;;;;;;7.65;4.28;;;;;;;;;;5027030;28;20426;-67
2022/09/24 09:12:04;;;;;;;7.05;3.97;;;;;;;;;;5028392;28;20418;-67
2022/09/24 09:14:38;;;;;;;6.63;3.67;;;;;;;;;;5009799;28;20390;-67
2022/09/24 09:17:44;;;;;;;6.35;3.70;;;;;;;;;;5008665;28;20453;-67
2022/09/24 09:20:28;;;;;;;8.23;4.43;;;;;;;;;;5009584;28;20522;-67
2022/09/24 09:22:53;;;;;;;4.28;2.88;;;;;;;;;;5027473;28;20338;-67
2022/09/24 09:25:27;;;;;;;7.30;3.78;;;;;;;;;;5030939;28;20113;-67
2022/09/24 09:28:00;;;;;;;7.47;2.88;;;;;;;;;;5031152;28;20448;-67
2022/09/24 09:30:25;;;;;;;3.58;2.35;;;;;;;;;;5013262;28;20437;-67
2022/09/24 09:33:31;;;;;;;5.90;3.53;;;;;;;;;;5031262;28;20446;-67
2022/09/24 09:36:23;;;;;;;5.68;2.85;;;;;;;;;;5020330;28;20411;-67
2022/09/24 09:39:08;;;;;;;5.22;3.22;;;;;;;;;;4993189;28;20443;-67
2022/09/24 09:41:39;;;;;;;5.75;2.85;;;;;;;;;;4992485;28;20474;-67
2022/09/24 09:44:14;;;;;;;6.40;3.58;;;;;;;;;;5010477;28;20390;-67
2022/09/24 09:46:46;;;;;;;5.85;3.10;;;;;;;;;;5010202;28;20455;-68
2022/09/24 09:49:13;;;;;;;8.40;3.35;;;;;;;;;;4992278;28;20451;-67
2022/09/24 09:51:41;;;;;;;6.50;3.15;;;;;;;;;;5010219;28;20462;-67
2022/09/24 09:54:07;;;;;;;3.93;2.60;;;;;;;;;;4992208;28;20107;-67
2022/09/24 09:56:42;;;;;;;6.95;3.00;;;;;;;;;;5010273;28;20461;-67
2022/09/24 09:59:07;;;;;;;5.30;2.78;;;;;;;;;;5010028;28;20447;-69
2022/09/24 10:01:35;;;;;;;4.75;2.80;;;;;;;;;;5011438;28;20443;-68
2022/09/24 10:04:03;;;;;;;6.30;3.42;;;;;;;;;;4992475;28;20457;-67
2022/09/24 10:06:31;;;;;;;4.63;2.95;;;;;;;;;;5009787;28;20359;-67
2022/09/24 10:09:12;;;;;;;5.00;3.05;;;;;;;;;;5010539;28;20451;-67
2022/09/24 10:11:39;;;;;;;4.90;3.08;;;;;;;;;;4991690;28;20029;-67
2022/09/24 10:14:08;;;;;;;6.97;3.28;;;;;;;;;;4991641;28;20541;-67
2022/09/24 10:16:43;;;;;;;;;;;;;;;;;;4992119;28;20439;-67
2022/09/24 10:19:22;;;;;;;4.38;2.65;;;;;;;;;;5009777;28;20272;-67
2022/09/24 10:21:48;;;;;;;5.10;2.53;;;;;;;;;;5009384;28;20466;-67
2022/09/24 10:24:17;;;;;;;4.75;2.63;;;;;;;;;;5009584;28;20438;-67
2022/09/24 10:26:44;;;;;;;6.57;2.92;;;;;;;;;;5010336;28;20024;-67
2022/09/24 10:31:57;;;;;;;4.80;2.83;;;;;;;;;;5009353;28;20434;-67
2022/09/24 10:34:27;;;;;;;5.03;2.50;;;;;;;;;;5009621;28;20570;-67
2022/09/24 10:36:58;;;;;;;4.68;2.50;;;;;;;;;;5015484;28;20355;-67
2022/09/24 10:39:24;;;;;;;4.30;2.42;;;;;;;;;;5010967;28;20114;-67
2022/09/24 10:41:51;;;;;;;5.75;2.80;;;;;;;;;;5029058;28;20024;-67
2022/09/24 10:44:17;;;;;;;4.30;2.55;;;;;;;;;;5029666;28;20505;-67
2022/09/24 10:46:57;;;;;;;4.88;2.70;;;;;;;;;;5010874;28;20397;-67
2022/09/24 10:49:56;;;;;;;3.40;2.22;;;;;;;;;;5029133;28;20032;-67
2022/09/24 10:52:25;;;;;;;4.80;2.45;;;;;;;;;;5028862;28;20063;-67
2022/09/24 10:55:18;;;;;;;3.97;2.50;;;;;;;;;;5029159;28;20381;-67
2022/09/24 10:58:05;;;;;;;4.57;2.60;;;;;;;;;;5029774;28;20134;-67
2022/09/24 11:00:58;;;;;;;5.22;2.50;;;;;;;;;;5028760;28;20031;-67
2022/09/24 11:03:32;;;;;;;5.22;2.65;;;;;;;;;;5010793;28;20363;-67
2022/09/24 11:06:17;;;;;;;3.22;2.15;;;;;;;;;;5010471;28;20446;-67
2022/09/24 11:08:48;;;;;;;3.17;2.17;;;;;;;;;;5028721;28;20036;-68
2022/09/24 11:11:39;;;;;;;4.90;2.70;;;;;;;;;;5028331;28;20385;-68
2022/09/24 11:14:26;;;;;;;4.35;2.63;;;;;;;;;;5029410;28;20312;-67
2022/09/24 11:16:59;;;;;;;5.13;2.42;;;;;;;;;;5028730;28;20418;-67
2022/09/24 11:19:43;;;;;;;3.35;2.25;;;;;;;;;;5028646;28;20426;-67
2022/09/24 11:22:14;;;;;;;4.30;2.28;;;;;;;;;;5028576;28;20435;-67
2022/09/24 11:24:51;;;;;;;3.45;2.13;;;;;;;;;;5010188;28;20404;-67
2022/09/24 11:27:35;;;;;;;3.70;2.13;;;;;;;;;;5028196;28;20332;-67
2022/09/24 11:30:09;;;;;;;5.30;2.20;;;;;;;;;;5028303;28;20024;-67
2022/09/24 11:32:50;;;;;;;4.47;2.47;;;;;;;;;;5028982;28;20431;-68
2022/09/24 11:35:34;;;;;;;5.30;2.33;;;;;;;;;;5028490;28;20470;-67
2022/09/24 11:38:12;;;;;;;4.63;2.17;;;;;;;;;;5009492;28;20466;-67
2022/09/24 11:40:40;;;;;;;3.78;2.30;;;;;;;;;;5028176;28;20423;-67
2022/09/24 11:43:15;;;;;;;4.30;2.22;;;;;;;;;;5028610;28;20343;-67
2022/09/24 11:46:09;;;;;;;4.57;2.15;;;;;;;;;;5027906;28;20462;-67
2022/09/24 11:48:34;;;;;;;3.65;2.15;;;;;;;;;;5027920;28;20381;-67
2022/09/24 11:51:07;;;;;;;3.15;1.85;;;;;;;;;;5027900;28;20078;-67
2022/09/24 11:53:42;;;;;;;9.65;2.17;;;;;;;;;;5027965;28;20450;-67
2022/09/24 11:56:21;;;;;;;4.28;2.38;;;;;;;;;;5009904;28;20032;-67
2022/09/24 11:58:50;;;;;;;3.33;2.20;;;;;;;;;;5028852;28;20366;-68
2022/09/24 12:01:19;;;;;;;2.88;1.80;;;;;;;;;;5027608;28;20351;-70
2022/09/24 12:04:03;;;;;;;3.47;2.22;;;;;;;;;;5027809;28;20518;-67
2022/09/24 12:06:34;;;;;;;3.70;1.95;;;;;;;;;;5028190;28;20385;-67
2022/09/24 12:09:09;;;;;;;2.50;1.55;;;;;;;;;;5009887;28;20055;-67
2022/09/24 12:11:46;;;;;;;2.45;1.67;;;;;;;;;;5027666;28;20380;-67
2022/09/24 12:14:21;;;;;;;3.90;2.00;;;;;;;;;;5009607;28;20031;-67
2022/09/24 12:16:49;;;;;;;2.72;2.00;;;;;;;;;;5010012;28;20414;-68
2022/09/24 12:19:27;;;;;;;3.95;2.00;;;;;;;;;;5027626;28;20499;-67
2022/09/24 12:21:52;;;;;;;5.55;2.33;;;;;;;;;;5009186;28;20050;-67
2022/09/24 12:24:31;;;;;;;3.97;2.10;;;;;;;;;;5009215;28;20395;-68
2022/09/24 12:27:00;;;;;;;1.73;1.40;;;;;;;;;;5009235;28;20500;-67
2022/09/24 12:33:04;;;;;;;2.80;1.88;;;;;;;;;;4964164;28;20401;-67
2022/09/24 12:36:01;;;;;;;2.33;1.65;;;;;;;;;;5009203;28;20389;-67
2022/09/24 12:38:32;;;;;;;1.95;1.50;;;;;;;;;;4968670;28;20339;-67
2022/09/24 12:41:16;;;;;;;2.78;1.90;;;;;;;;;;5027200;28;20064;-67
2022/09/24 12:43:43;;;;;;;2.30;1.58;;;;;;;;;;5008823;28;20426;-67
2022/09/24 12:46:45;;;;;;;2.78;1.80;;;;;;;;;;5029552;28;20427;-67
2022/09/24 12:49:33;;;;;;;2.67;1.70;;;;;;;;;;5022605;28;20117;-67
2022/09/24 12:52:01;;;;;;;2.65;1.73;;;;;;;;;;5027342;28;20373;-67
2022/09/24 12:54:37;;;;;;;2.05;1.60;;;;;;;;;;5008931;28;20354;-67
2022/09/24 12:57:09;;;;;;;2.83;1.77;;;;;;;;;;5028284;28;20401;-67
2022/09/24 12:59:51;;;;;;;2.33;1.65;;;;;;;;;;5011755;28;20413;-67
2022/09/24 13:02:25;;;;;;;3.17;1.65;;;;;;;;;;5013364;28;20398;-67
2022/09/24 13:04:59;;;;;;;2.30;1.55;;;;;;;;;;5031280;28;20473;-68
2022/09/24 13:07:35;;;;;;;3.85;1.52;;;;;;;;;;5031219;28;20402;-67
2022/09/24 13:10:16;;;;;;;3.78;1.90;;;;;;;;;;5031213;28;20430;-67
2022/09/24 13:12:42;;;;;;;3.25;1.52;;;;;;;;;;5031616;28;20341;-67
2022/09/24 13:15:23;;;;;;;2.15;1.60;;;;;;;;;;5012920;28;20341;-67
2022/09/24 13:17:59;;;;;;;2.33;1.70;;;;;;;;;;5012946;28;20593;-67
2022/09/24 13:20:25;;;;;;;2.63;1.90;;;;;;;;;;5012333;28;20465;-68
2022/09/24 13:22:58;;;;;;;3.25;1.63;;;;;;;;;;5030894;28;20435;-67
2022/09/24 13:25:26;;;;;;;2.22;1.63;;;;;;;;;;5012785;28;20342;-67
2022/09/24 13:28:02;;;;;;;2.20;1.60;;;;;;;;;;5012219;28;20470;-68
2022/09/24 13:30:28;;;;;;;3.72;1.77;;;;;;;;;;5012422;28;20082;-67
2022/09/24 13:32:59;;;;;;;2.92;1.45;;;;;;;;;;5031040;28;20103;-67
2022/09/24 13:35:28;;;;;;;2.42;1.50;;;;;;;;;;5012485;28;20350;-67
2022/09/24 13:37:56;;;;;;;;;;;;;;;;;;5012248;28;20056;-67
2022/09/24 13:40:24;;;;;;;2.03;1.43;;;;;;;;;;5030653;28;20361;-67
2022/09/24 13:43:02;;;;;;;1.90;1.35;;;;;;;;;;5012152;28;20169;-67
2022/09/24 13:45:28;;;;;;;2.80;1.60;;;;;;;;;;5030465;28;20466;-67
2022/09/24 13:48:01;;;;;;;2.65;1.60;;;;;;;;;;4808836;28;5001388;-69
2022/09/24 13:50:31;;;;;;;2.70;1.25;;;;;;;;;;4970595;28;20364;-67
2022/09/24 13:53:15;;;;;;;3.50;1.58;;;;;;;;;;4969110;28;20120;-67
2022/09/24 13:55:45;;;;;;;2.25;1.60;;;;;;;;;;4970625;28;20037;-67
2022/09/24 13:58:31;;;;;;;1.33;1.20;;;;;;;;;;4968904;28;20513;-67
2022/09/24 14:00:59;;;;;;;2.65;1.45;;;;;;;;;;4970566;28;20025;-67
2022/09/24 14:03:31;;;;;;;2.63;1.58;;;;;;;;;;4970433;28;20030;-70
2022/09/24 14:05:57;;;;;;;2.83;1.55;;;;;;;;;;4969170;28;20497;-68
2022/09/24 14:08:23;;;;;;;2.80;1.50;;;;;;;;;;4968924;28;20037;-67
2022/09/24 14:10:50;;;;;;;3.38;1.50;;;;;;;;;;4968912;28;20448;-67
2022/09/24 14:13:24;;;;;;;2.42;1.55;;;;;;;;;;4969399;28;20439;-67
2022/09/24 14:16:06;;;;;;;2.40;1.60;;;;;;;;;;4970335;28;20459;-67
2022/09/24 14:18:32;;;;;;;2.80;1.67;;;;;;;;;;4968584;28;20364;-67
2022/09/24 14:21:03;;;;;;;2.03;1.23;;;;;;;;;;4970189;28;20396;-67
2022/09/24 14:23:39;;;;;;;2.30;1.30;;;;;;;;;;4968642;28;20571;-67
2022/09/24 14:26:06;;;;;;;2.42;1.20;;;;;;;;;;4970040;28;20445;-67
2022/09/24 14:28:32;;;;;;;1.10;1.00;;;;;;;;;;4968595;28;20379;-67
2022/09/24 14:30:58;;;;;;;2.90;1.30;;;;;;;;;;4970195;28;20467;-68
2022/09/24 14:33:26;;;;;;;2.25;1.33;;;;;;;;;;4968341;28;20479;-67
2022/09/24 14:35:54;;;;;;;2.10;1.45;;;;;;;;;;4969815;28;20448;-67
2022/09/24 14:38:55;;;;;;;2.90;1.90;;;;;;;;;;4988503;28;20060;-67
2022/09/24 14:41:28;;;;;;;2.20;1.40;;;;;;;;;;4989382;28;20431;-67
2022/09/24 14:44:14;;;;;;;1.80;1.20;;;;;;;;;;4971421;28;20056;-67
2022/09/24 14:46:49;;;;;;;3.03;1.33;;;;;;;;;;4971360;28;20454;-67
2022/09/24 14:49:26;;;;;;;2.35;1.60;;;;;;;;;;4989360;28;20448;-67
2022/09/24 14:51:56;;;;;;;1.95;1.40;;;;;;;;;;4955828;28;20412;-67
2022/09/24 14:54:40;;;;;;;1.75;1.35;;;;;;;;;;4971328;28;20427;-67
2022/09/24 14:57:18;;;;;;;1.90;1.25;;;;;;;;;;4971459;28;20573;-68
2022/09/24 14:59:44;;;;;;;2.17;1.40;;;;;;;;;;4989110;28;20382;-67
2022/09/24 15:02:23;;;;;;;2.92;1.50;;;;;;;;;;4971029;28;20108;-67
2022/09/24 15:04:57;;;;;;;1.58;1.17;;;;;;;;;;4989067;28;20371;-67
2022/09/24 15:07:24;;;;;;;1.92;1.30;;;;;;;;;;4988945;28;20025;-67
2022/09/24 15:09:52;;;;;;;2.05;1.23;;;;;;;;;;4988984;28;20103;-67
2022/09/24 15:12:31;;;;;;;2.33;1.42;;;;;;;;;;4970927;28;20029;-67